Time;durP1;ratioP1;P1;durP2;ratioP2;P2;SDS_P1;SDS_P2;PMS_P1;PMS_P2;Temp;Humidity;BMP_temperature;BMP_pressure;BME280_temperature;BME280_humidity;BME280_pressure;Samples;Min_cycle;Max_cycle;Signal;HPM_P1;HPM_P2
2021/12/24 00:02:04;;;;;;;3.80;2.60;;;;;;;7.45;82.66;97465.88;5078214;28;20626;-69
2021/12/24 00:04:30;;;;;;;3.80;2.67;;;;;;;7.36;83.35;97461.88;5078448;28;20196;-69
2021/12/24 00:06:57;;;;;;;3.03;2.67;;;;;;;7.25;83.26;97465.19;5078279;28;20228;-70
2021/12/24 00:09:26;;;;;;;4.97;2.70;;;;;;;7.11;83.61;97451.22;5077936;28;20495;-69
2021/12/24 00:11:56;;;;;;;4.47;2.60;;;;;;;7.01;84.88;97442.97;5078152;28;20239;-69
2021/12/24 00:14:25;;;;;;;2.97;2.63;;;;;;;7.07;84.79;97439.50;5078314;28;20300;-70
2021/12/24 00:16:55;;;;;;;3.83;2.70;;;;;;;6.96;84.62;97437.50;5078559;28;20188;-69
2021/12/24 00:19:35;;;;;;;2.67;2.40;;;;;;;7.10;84.28;97438.25;5077979;28;20185;-69
2021/12/24 00:35:51;;;;;;;3.47;2.73;;;;;;;6.92;85.38;97440.78;5077646;28;20515;-69
2021/12/24 00:38:17;;;;;;;3.80;2.60;;;;;;;6.79;85.92;97441.63;5077847;28;20195;-69
2021/12/24 00:40:46;;;;;;;2.70;2.43;;;;;;;6.61;86.71;97436.22;5077479;28;20195;-69
2021/12/24 00:43:15;;;;;;;3.67;2.67;;;;;;;6.55;87.00;97429.16;5077708;28;20193;-69
2021/12/24 00:45:44;;;;;;;3.53;2.87;;;;;;;6.60;87.35;97431.19;5077302;28;20216;-67
2021/12/24 00:48:17;;;;;;;4.50;2.63;;;;;;;6.70;85.90;97420.97;5077649;28;20196;-67
2021/12/24 00:50:54;;;;;;;4.57;2.40;;;;;;;6.45;87.02;97423.50;5076739;28;20216;-66
2021/12/24 00:56:09;;;;;;;4.57;2.67;;;;;;;6.54;87.66;97414.31;5077478;28;20358;-67
2021/12/24 00:58:36;;;;;;;3.73;2.87;;;;;;;6.54;87.48;97427.53;5077432;28;20192;-67
2021/12/24 01:01:04;;;;;;;3.93;2.80;;;;;;;6.59;88.05;97413.69;5077122;28;20189;-66
2021/12/24 01:03:30;;;;;;;3.70;2.73;;;;;;;6.57;87.74;97421.03;5077010;28;20611;-67
2021/12/24 01:05:57;;;;;;;3.90;3.23;;;;;;;6.50;88.29;97407.84;5077190;28;20220;-67
2021/12/24 01:08:24;;;;;;;3.97;2.93;;;;;;;6.48;88.40;97415.16;5077263;28;20200;-67
2021/12/24 01:11:02;;;;;;;5.17;3.20;;;;;;;6.49;88.36;97410.69;5076798;28;20213;-67
2021/12/24 01:13:29;;;;;;;4.07;2.90;;;;;;;6.48;88.07;97422.28;5077099;28;20211;-67
2021/12/24 01:16:01;;;;;;;3.77;2.83;;;;;;;6.51;88.37;97421.88;5077021;28;20247;-67
2021/12/24 01:18:40;;;;;;;2.80;2.40;;;;;;;6.59;87.64;97416.31;5077049;28;20192;-67
2021/12/24 01:21:20;;;;;;;2.43;2.23;;;;;;;6.71;86.83;97418.13;5077579;28;20270;-67
2021/12/24 01:23:50;;;;;;;4.37;3.10;;;;;;;6.58;87.25;97428.75;5077358;28;20207;-67
2021/12/24 01:26:22;;;;;;;3.30;2.70;;;;;;;6.51;87.46;97427.16;5076883;28;20296;-67
2021/12/24 01:29:07;;;;;;;3.67;2.80;;;;;;;6.44;88.38;97416.59;5076908;28;20197;-67
2021/12/24 01:39:54;;;;;;;4.10;2.33;;;;;;;6.77;87.26;97411.16;5076507;28;20175;-71
2021/12/24 01:42:41;;;;;;;3.20;2.70;;;;;;;6.92;86.26;97417.00;5076685;28;20279;-71
2021/12/24 01:45:21;;;;;;;2.50;2.10;;;;;;;7.23;84.77;97417.81;5076289;28;20228;-71
2021/12/24 01:47:49;;;;;;;4.23;2.13;;;;;;;7.53;83.57;97412.75;5076623;28;20197;-72
2021/12/24 01:50:16;;;;;;;3.30;2.30;;;;;;;7.75;82.13;97411.34;5076360;28;20584;-71
2021/12/24 01:52:43;;;;;;;3.00;2.00;;;;;;;7.92;81.14;97412.41;5076655;28;20193;-71
2021/12/24 01:55:10;;;;;;;3.17;2.23;;;;;;;7.96;80.93;97405.66;5076338;28;20221;-72
2021/12/24 01:57:41;;;;;;;2.47;2.20;;;;;;;7.96;80.80;97397.72;5076420;28;20199;-71
2021/12/24 02:00:10;;;;;;;4.33;2.23;;;;;;;8.00;80.57;97393.59;5076031;28;20498;-71
2021/12/24 02:02:37;;;;;;;3.63;2.40;;;;;;;8.01;80.13;97398.66;5075958;28;20614;-71
2021/12/24 02:05:04;;;;;;;2.87;2.30;;;;;;;8.05;79.79;97391.13;5076444;28;20216;-71
2021/12/24 02:07:30;;;;;;;2.40;2.10;;;;;;;7.98;80.03;97395.66;5076168;28;20189;-71
2021/12/24 02:09:57;;;;;;;2.43;2.00;;;;;;;7.98;80.04;97387.72;5076431;28;20189;-71
2021/12/24 02:12:24;;;;;;;3.30;2.20;;;;;;;8.21;79.08;97398.50;5076053;28;20216;-71
2021/12/24 02:14:54;;;;;;;3.30;2.27;;;;;;;8.14;79.28;97393.25;5075924;28;20543;-71
2021/12/24 02:17:47;;;;;;;2.10;1.90;;;;;;;8.00;79.76;97383.00;5076565;28;20232;-71
2021/12/24 02:28:38;;;;;;;2.63;2.00;;;;;;;7.98;79.97;97363.91;5075984;28;20647;-71
2021/12/24 02:31:08;;;;;;;3.43;1.80;;;;;;;8.00;79.71;97367.13;5076194;28;20538;-71
2021/12/24 02:33:35;;;;;;;2.23;1.90;;;;;;;8.09;79.62;97365.81;5076133;28;20199;-71
2021/12/24 02:36:01;;;;;;;3.70;2.10;;;;;;;8.34;78.28;97367.41;5075639;28;20224;-71
2021/12/24 02:38:28;;;;;;;2.50;2.30;;;;;;;8.36;78.50;97362.69;5076076;28;20491;-71
2021/12/24 02:40:55;;;;;;;4.53;2.10;;;;;;;8.41;78.31;97359.38;5076049;28;20189;-71
2021/12/24 02:43:23;;;;;;;2.77;2.17;;;;;;;8.47;78.26;97363.78;5076063;28;20189;-71
2021/12/24 02:45:52;;;;;;;2.63;1.90;;;;;;;8.43;78.34;97352.03;5075991;28;20273;-71
2021/12/24 02:48:55;;;;;;;3.43;1.93;;;;;;;8.41;78.64;97346.16;5075917;28;20833;-72
2021/12/24 02:54:16;;;;;;;2.23;1.87;;;;;;;8.05;80.25;97333.69;5075699;28;20286;-71
2021/12/24 02:56:48;;;;;;;2.37;2.03;;;;;;;8.02;80.12;97333.31;5075881;28;20244;-71
2021/12/24 02:59:17;;;;;;;2.13;1.90;;;;;;;7.95;80.67;97328.09;5076177;28;20194;-71
2021/12/24 03:01:47;;;;;;;3.00;1.80;;;;;;;7.84;81.01;97328.84;5075854;28;20243;-71
2021/12/24 03:04:15;;;;;;;2.73;1.87;;;;;;;7.82;80.93;97333.53;5075945;28;20477;-72
2021/12/24 03:06:44;;;;;;;2.47;2.07;;;;;;;7.67;81.50;97325.13;5075794;28;20535;-72
2021/12/24 03:09:15;;;;;;;2.07;1.87;;;;;;;7.76;81.21;97333.59;5075822;28;20185;-71
2021/12/24 03:11:42;;;;;;;2.83;1.80;;;;;;;7.77;80.99;97330.72;5075633;28;20217;-71
2021/12/24 03:14:10;;;;;;;3.50;1.90;;;;;;;7.81;80.69;97337.19;5078856;28;20205;-71
2021/12/24 03:16:39;;;;;;;2.30;2.07;;;;;;;7.91;80.13;97331.38;5079033;28;20687;-72
2021/12/24 03:19:08;;;;;;;2.20;1.73;;;;;;;7.91;79.91;97326.91;5079516;28;20207;-71
2021/12/24 03:21:39;;;;;;;4.17;2.10;;;;;;;7.92;80.06;97330.38;5079336;28;20546;-71
2021/12/24 03:26:50;;;;;;;3.27;2.10;;;;;;;7.75;80.51;97321.38;5079069;28;20238;-71
2021/12/24 03:29:19;;;;;;;3.57;2.23;;;;;;;7.84;79.90;97317.44;5079186;28;20215;-71
2021/12/24 03:31:46;;;;;;;4.07;2.10;;;;;;;7.61;80.92;97317.25;5078877;28;20185;-71
2021/12/24 03:34:17;;;;;;;4.13;2.20;;;;;;;7.51;81.49;97314.31;5079047;28;20209;-71
2021/12/24 03:36:44;;;;;;;2.50;1.90;;;;;;;7.41;82.12;97303.38;5078696;28;20224;-71
2021/12/24 03:39:12;;;;;;;2.30;2.10;;;;;;;7.41;81.91;97301.56;5078973;28;20449;-71
2021/12/24 03:41:38;;;;;;;2.70;2.07;;;;;;;7.42;82.16;97289.16;5079003;28;20284;-71
2021/12/24 03:44:07;;;;;;;1.80;1.70;;;;;;;7.35;82.36;97293.69;5079019;28;20189;-71
2021/12/24 03:46:41;;;;;;;2.33;1.90;;;;;;;7.29;82.86;97289.28;5078513;28;20643;-69
2021/12/24 03:49:17;;;;;;;3.03;1.90;;;;;;;7.27;82.72;97289.47;5078876;28;20184;-70
2021/12/24 03:51:51;;;;;;;2.23;1.90;;;;;;;7.26;82.76;97294.97;5078926;28;20200;-69
2021/12/24 03:57:01;;;;;;;2.50;1.83;;;;;;;7.17;83.49;97285.72;5078732;28;20571;-69
2021/12/24 03:59:27;;;;;;;2.83;1.80;;;;;;;7.16;83.68;97278.81;5078312;28;20275;-69
2021/12/24 04:01:54;;;;;;;2.67;1.87;;;;;;;7.20;84.20;97277.34;5078584;28;20185;-69
2021/12/24 04:04:20;;;;;;;2.73;2.03;;;;;;;7.26;84.93;97279.94;5078576;28;20200;-70
2021/12/24 04:06:47;;;;;;;3.23;1.93;;;;;;;7.58;82.72;97284.13;5078269;28;20236;-69
2021/12/24 04:09:14;;;;;;;4.50;1.90;;;;;;;7.94;82.40;97272.72;5078295;28;20193;-69
2021/12/24 04:11:41;;;;;;;2.07;1.87;;;;;;;8.04;82.10;97281.78;5078051;28;20219;-69
2021/12/24 04:14:07;;;;;;;2.37;2.17;;;;;;;8.11;81.94;97284.34;5078286;28;20193;-69
2021/12/24 04:16:34;;;;;;;2.33;1.97;;;;;;;8.10;81.95;97280.88;5078102;28;20228;-70
2021/12/24 04:19:18;;;;;;;1.87;1.70;;;;;;;8.24;81.81;97278.94;5078510;28;20197;-70
2021/12/24 04:27:12;;;;;;;3.03;2.27;;;;;;;8.55;80.29;97265.47;5078231;28;20302;-69
2021/12/24 04:29:38;;;;;;;2.30;1.90;;;;;;;8.70;79.31;97261.38;5077739;28;20599;-70
2021/12/24 04:32:11;;;;;;;3.40;1.90;;;;;;;8.90;78.26;97259.25;5078235;28;20193;-69
2021/12/24 04:34:39;;;;;;;3.17;2.20;;;;;;;8.94;78.24;97259.59;5077673;28;20234;-68
2021/12/24 04:37:48;;;;;;;1.80;1.70;;;;;;;8.98;78.23;97258.09;5078039;28;20197;-68
2021/12/24 04:51:17;;;;;;;2.10;1.90;;;;;;;8.96;77.86;97244.28;5077423;28;20176;-71
2021/12/24 05:02:10;;;;;;;2.50;1.73;;;;;;;8.99;78.29;97243.81;5077341;28;20176;-71
2021/12/24 05:04:46;;;;;;;2.30;2.10;;;;;;;9.10;77.96;97254.41;5077227;28;20196;-71
2021/12/24 05:07:28;;;;;;;2.80;1.90;;;;;;;8.92;78.58;97254.50;5076790;28;20579;-71
2021/12/24 05:09:54;;;;;;;3.00;1.80;;;;;;;8.90;78.95;97247.81;5076981;28;20251;-71
2021/12/24 05:12:21;;;;;;;1.90;1.80;;;;;;;8.94;78.78;97251.63;5076794;28;20215;-71
2021/12/24 05:14:47;;;;;;;3.73;1.80;;;;;;;8.71;80.02;97259.53;5076564;28;20236;-70
2021/12/24 05:17:24;;;;;;;2.37;2.03;;;;;;;8.56;80.59;97256.50;5077025;28;20374;-72
2021/12/24 05:22:35;;;;;;;2.83;2.10;;;;;;;8.64;79.49;97251.66;5076636;28;20171;-72
2021/12/24 05:25:02;;;;;;;2.70;1.90;;;;;;;8.83;78.46;97255.88;5076476;28;20221;-72
2021/12/24 05:27:29;;;;;;;2.53;1.90;;;;;;;8.58;79.36;97249.13;5075060;28;20187;-72
2021/12/24 05:29:55;;;;;;;2.33;1.90;;;;;;;8.53;79.62;97256.94;5074815;28;20196;-69
2021/12/24 05:32:22;;;;;;;3.57;2.10;;;;;;;8.39;80.01;97252.84;5074777;28;20272;-69
2021/12/24 05:34:49;;;;;;;3.03;1.93;;;;;;;8.54;79.33;97255.91;5074071;28;20239;-69
2021/12/24 05:37:15;;;;;;;3.17;2.13;;;;;;;8.28;80.00;97254.41;5074247;28;20207;-71
2021/12/24 05:39:42;;;;;;;2.17;2.00;;;;;;;8.32;80.15;97255.59;5075012;28;20211;-71
2021/12/24 05:42:08;;;;;;;2.47;2.00;;;;;;;8.25;80.00;97264.66;5076443;28;20189;-71
2021/12/24 05:44:35;;;;;;;2.43;1.90;;;;;;;8.23;80.42;97259.56;5076602;28;20201;-71
2021/12/24 05:47:01;;;;;;;2.13;1.93;;;;;;;8.14;80.94;97255.59;5076568;28;20232;-73
2021/12/24 05:49:28;;;;;;;3.60;2.17;;;;;;;7.98;81.49;97263.31;5076629;28;20199;-74
2021/12/24 05:51:54;;;;;;;3.43;2.37;;;;;;;8.06;80.93;97252.44;5076533;28;20204;-73
2021/12/24 05:54:20;;;;;;;3.80;2.13;;;;;;;8.06;81.15;97249.78;5076749;28;20211;-72
2021/12/24 05:56:47;;;;;;;4.60;2.60;;;;;;;8.15;81.01;97253.75;5076563;28;20228;-72
2021/12/24 05:59:13;;;;;;;5.33;2.30;;;;;;;8.53;80.14;97252.47;5076167;28;20184;-72
2021/12/24 06:01:40;;;;;;;2.60;2.40;;;;;;;8.93;79.59;97253.50;5076111;28;20610;-72
2021/12/24 06:04:06;;;;;;;2.87;2.33;;;;;;;8.96;79.68;97247.72;5076366;28;20204;-72
2021/12/24 06:06:33;;;;;;;4.30;2.20;;;;;;;9.09;79.41;97250.16;5076121;28;20217;-72
2021/12/24 06:08:59;;;;;;;2.30;2.10;;;;;;;9.28;78.62;97251.66;5075914;28;20205;-72
2021/12/24 06:11:26;;;;;;;2.27;2.10;;;;;;;9.48;77.65;97253.97;5075916;28;20220;-72
2021/12/24 06:13:55;;;;;;;2.90;2.30;;;;;;;9.43;77.96;97264.47;5076236;28;20511;-71
2021/12/24 06:16:21;;;;;;;2.77;2.53;;;;;;;9.53;77.52;97277.97;5076161;28;20229;-74
2021/12/24 06:18:48;;;;;;;3.90;2.23;;;;;;;9.46;77.77;97269.34;5076150;28;20197;-73
2021/12/24 06:21:15;;;;;;;3.93;2.30;;;;;;;9.36;78.09;97269.91;5076129;28;20287;-73
2021/12/24 06:23:44;;;;;;;2.43;2.20;;;;;;;9.49;77.59;97274.97;5076129;28;20211;-72
2021/12/24 06:26:12;;;;;;;3.07;2.47;;;;;;;9.57;77.55;97265.88;5076407;28;20220;-72
2021/12/24 06:28:38;;;;;;;2.40;2.10;;;;;;;9.42;78.31;97260.22;5076135;28;20250;-72
2021/12/24 06:31:05;;;;;;;3.83;2.23;;;;;;;9.28;78.79;97256.19;5075868;28;20189;-72
2021/12/24 06:33:32;;;;;;;3.63;1.87;;;;;;;9.29;78.44;97253.31;5076091;28;20243;-72
2021/12/24 06:35:58;;;;;;;3.60;2.27;;;;;;;9.36;78.01;97254.00;5075645;28;20624;-71
2021/12/24 06:38:25;;;;;;;2.80;2.20;;;;;;;9.46;77.55;97264.81;5076007;28;20208;-71
2021/12/24 06:40:53;;;;;;;3.90;2.20;;;;;;;9.50;77.24;97267.84;5076326;28;20189;-71
2021/12/24 06:43:20;;;;;;;2.50;2.23;;;;;;;9.46;77.47;97269.34;5076053;28;20201;-72
2021/12/24 06:45:47;;;;;;;3.47;2.10;;;;;;;9.49;77.35;97279.47;5075904;28;20221;-72
2021/12/24 06:48:14;;;;;;;3.67;2.37;;;;;;;9.51;76.92;97285.38;5077825;28;20210;-71
2021/12/24 06:50:40;;;;;;;3.60;2.30;;;;;;;9.42;77.31;97273.50;5079833;28;20205;-72
2021/12/24 06:53:07;;;;;;;3.23;2.57;;;;;;;9.36;77.92;97277.03;5079536;28;20616;-69
2021/12/24 06:55:33;;;;;;;3.60;2.40;;;;;;;9.48;77.21;97275.22;5079308;28;20522;-69
2021/12/24 06:57:59;;;;;;;3.93;2.80;;;;;;;9.36;77.79;97277.03;5079794;28;20200;-69
2021/12/24 07:00:26;;;;;;;2.90;2.50;;;;;;;9.38;77.62;97267.03;5079941;28;20188;-71
2021/12/24 07:02:53;;;;;;;4.47;2.67;;;;;;;9.47;78.43;97268.28;5079548;28;20207;-73
2021/12/24 07:05:20;;;;;;;2.83;2.53;;;;;;;9.42;79.99;97271.63;5079490;28;20519;-73
2021/12/24 07:07:46;;;;;;;5.20;2.60;;;;;;;9.17;82.19;97256.97;5079482;28;20189;-73
2021/12/24 07:10:13;;;;;;;2.97;2.73;;;;;;;9.21;82.54;97255.47;5079525;28;20205;-74
2021/12/24 07:12:40;;;;;;;3.73;3.03;;;;;;;9.32;81.45;97266.09;5079067;28;20212;-73
2021/12/24 07:15:07;;;;;;;6.10;3.00;;;;;;;9.48;80.30;97269.91;5078973;28;20654;-71
2021/12/24 07:17:34;;;;;;;4.17;2.80;;;;;;;9.33;81.47;97274.88;5079279;28;20472;-72
2021/12/24 07:20:00;;;;;;;4.37;2.77;;;;;;;9.22;82.16;97267.69;5078993;28;20626;-69
2021/12/24 07:22:27;;;;;;;3.20;2.50;;;;;;;9.35;81.85;97273.59;5079228;28;20189;-72
2021/12/24 07:24:53;;;;;;;4.83;3.03;;;;;;;9.26;82.85;97274.16;5078962;28;20228;-73
2021/12/24 07:27:20;;;;;;;3.10;2.63;;;;;;;9.22;83.10;97278.28;5079078;28;20203;-73
2021/12/24 07:29:46;;;;;;;3.47;2.43;;;;;;;8.98;84.65;97271.34;5079834;28;20200;-73
2021/12/24 07:32:13;;;;;;;4.03;2.73;;;;;;;8.82;85.77;97266.72;5079145;28;20451;-73
2021/12/24 07:34:39;;;;;;;2.77;2.43;;;;;;;8.90;85.47;97267.19;5078862;28;20207;-73
2021/12/24 07:37:05;;;;;;;3.20;2.87;;;;;;;8.96;84.77;97279.53;5078970;28;20231;-70
2021/12/24 07:39:32;;;;;;;4.53;3.20;;;;;;;8.94;84.92;97270.19;5078910;28;20208;-73
2021/12/24 07:41:58;;;;;;;4.30;3.00;;;;;;;8.91;84.95;97278.63;5079065;28;20201;-73
2021/12/24 07:44:26;;;;;;;3.50;2.80;;;;;;;8.93;84.46;97255.31;5078983;28;20197;-72
2021/12/24 07:46:56;;;;;;;4.30;3.00;;;;;;;8.95;83.88;97254.06;5078585;28;20228;-72
2021/12/24 07:49:32;;;;;;;3.30;2.70;;;;;;;8.84;84.69;97256.69;5078776;28;20250;-72
2021/12/24 07:52:08;;;;;;;4.37;2.80;;;;;;;8.75;85.16;97266.81;5078830;28;20211;-72
2021/12/24 07:54:38;;;;;;;5.67;2.73;;;;;;;8.84;84.10;97281.34;5078550;28;20258;-73
2021/12/24 07:57:05;;;;;;;3.73;2.73;;;;;;;8.99;82.84;97278.25;5078247;28;20517;-74
2021/12/24 07:59:31;;;;;;;3.07;2.77;;;;;;;8.89;83.72;97270.06;5078218;28;20185;-73
2021/12/24 08:01:58;;;;;;;3.07;2.77;;;;;;;8.87;83.56;97280.09;5078427;28;20205;-73
2021/12/24 08:04:25;;;;;;;2.93;2.60;;;;;;;8.86;83.50;97278.47;5078832;28;20197;-72
2021/12/24 08:06:51;;;;;;;3.67;2.50;;;;;;;8.80;83.75;97274.06;5077798;28;20635;-72
2021/12/24 08:09:18;;;;;;;3.57;2.67;;;;;;;8.76;83.81;97267.59;5078578;28;20200;-72
2021/12/24 08:11:44;;;;;;;2.20;2.10;;;;;;;8.87;82.88;97272.16;5077780;28;20216;-72
2021/12/24 08:14:10;;;;;;;2.90;2.47;;;;;;;8.89;82.86;97265.59;5078223;28;20215;-71
2021/12/24 08:16:37;;;;;;;4.50;2.57;;;;;;;8.88;82.74;97265.81;5078305;28;20231;-72
2021/12/24 08:19:03;;;;;;;3.50;2.40;;;;;;;9.02;81.55;97264.56;5078176;28;20200;-72
2021/12/24 08:21:30;;;;;;;2.77;2.20;;;;;;;9.03;81.23;97271.47;5078128;28;20204;-73
2021/12/24 08:23:56;;;;;;;2.80;2.50;;;;;;;9.01;81.36;97269.03;5078109;28;20219;-73
2021/12/24 08:26:23;;;;;;;5.30;2.20;;;;;;;9.02;80.81;97273.34;5077865;28;20217;-73
2021/12/24 08:28:51;;;;;;;2.10;1.90;;;;;;;9.09;80.85;97267.94;5077620;28;20199;-71
2021/12/24 08:31:18;;;;;;;2.83;2.30;;;;;;;9.12;80.44;97262.97;5077829;28;20197;-71
2021/12/24 08:33:44;;;;;;;3.33;2.53;;;;;;;9.16;80.40;97261.47;5077841;28;20204;-71
2021/12/24 08:36:12;;;;;;;3.60;2.63;;;;;;;9.10;80.49;97274.84;5077726;28;20236;-71
2021/12/24 08:38:39;;;;;;;2.67;2.20;;;;;;;9.20;79.92;97264.47;5077620;28;20223;-72
2021/12/24 08:41:06;;;;;;;2.77;2.00;;;;;;;9.19;80.02;97273.47;5077867;28;20201;-72
2021/12/24 08:43:33;;;;;;;2.40;2.20;;;;;;;9.21;79.93;97274.03;5077564;28;20333;-72
2021/12/24 08:45:59;;;;;;;2.67;2.37;;;;;;;9.16;80.30;97266.78;5077525;28;20697;-69
2021/12/24 08:48:26;;;;;;;2.50;2.30;;;;;;;9.18;79.99;97262.03;5077478;28;20287;-69
2021/12/24 08:50:52;;;;;;;3.43;2.03;;;;;;;9.19;80.17;97257.56;5077434;28;20201;-69
2021/12/24 08:53:19;;;;;;;2.63;2.17;;;;;;;9.19;80.03;97262.88;5077403;28;20201;-69
2021/12/24 08:55:45;;;;;;;3.30;2.73;;;;;;;9.26;79.93;97263.53;5077163;28;20221;-69
2021/12/24 08:58:12;;;;;;;3.77;2.10;;;;;;;9.22;80.12;97267.69;5077235;28;20197;-70
2021/12/24 09:00:38;;;;;;;2.50;1.93;;;;;;;9.13;80.56;97267.22;5077228;28;20220;-71
2021/12/24 09:03:05;;;;;;;3.10;1.90;;;;;;;9.18;80.48;97269.19;5077088;28;20185;-70
2021/12/24 09:05:31;;;;;;;2.20;2.00;;;;;;;9.18;80.43;97258.56;5077163;28;20224;-70
2021/12/24 09:07:58;;;;;;;3.27;2.17;;;;;;;9.14;80.87;97263.53;5078080;28;20196;-69
2021/12/24 09:10:29;;;;;;;5.07;2.30;;;;;;;9.07;81.38;97262.84;5075831;28;20630;-70
2021/12/24 09:12:57;;;;;;;3.40;2.10;;;;;;;9.04;81.96;97265.94;5076983;28;20282;-71
2021/12/24 09:15:27;;;;;;;2.90;2.30;;;;;;;9.02;82.07;97261.91;5076696;28;20723;-70
2021/12/24 09:17:54;;;;;;;2.30;2.10;;;;;;;9.02;82.33;97268.03;5076469;28;20587;-70
2021/12/24 09:20:27;;;;;;;3.00;2.40;;;;;;;9.01;82.48;97262.94;5076896;28;20200;-71
2021/12/24 09:22:54;;;;;;;2.47;2.27;;;;;;;8.98;82.82;97266.06;5076970;28;20197;-71
2021/12/24 09:25:22;;;;;;;3.23;2.40;;;;;;;8.95;82.85;97258.53;5077176;28;20507;-68
2021/12/24 09:27:49;;;;;;;3.50;2.50;;;;;;;9.01;83.52;97261.09;5076782;28;20197;-71
2021/12/24 09:30:15;;;;;;;2.43;2.23;;;;;;;8.92;84.53;97254.50;5076698;28;20477;-71
2021/12/24 09:32:42;;;;;;;2.80;2.47;;;;;;;8.96;84.76;97262.84;5076820;28;20200;-72
2021/12/24 09:35:10;;;;;;;4.23;2.27;;;;;;;8.87;85.85;97257.03;5076679;28;20221;-70
2021/12/24 09:37:37;;;;;;;4.37;2.67;;;;;;;8.85;85.89;97260.94;5076312;28;20650;-68
2021/12/24 09:40:06;;;;;;;4.67;2.50;;;;;;;8.80;86.27;97253.69;5076517;28;20207;-68
2021/12/24 09:42:33;;;;;;;3.90;2.40;;;;;;;8.80;86.44;97260.81;5076540;28;20211;-68
2021/12/24 09:45:00;;;;;;;5.13;2.50;;;;;;;8.77;86.41;97256.78;5076358;28;20220;-72
2021/12/24 09:47:27;;;;;;;4.80;2.67;;;;;;;8.71;87.70;97248.94;5076434;28;20193;-71
2021/12/24 09:49:53;;;;;;;2.57;2.27;;;;;;;8.65;87.96;97255.16;5076419;28;20200;-71
2021/12/24 09:52:21;;;;;;;4.10;2.60;;;;;;;8.55;88.87;97249.59;5076557;28;20192;-68
2021/12/24 09:54:49;;;;;;;2.93;2.50;;;;;;;8.59;89.03;97256.84;5076427;28;20224;-68
2021/12/24 09:57:16;;;;;;;2.97;2.60;;;;;;;8.56;88.92;97251.19;5076384;28;20311;-70
2021/12/24 09:59:43;;;;;;;3.00;2.57;;;;;;;8.65;88.40;97255.94;5076135;28;20208;-70
2021/12/24 10:02:15;;;;;;;3.13;2.50;;;;;;;8.61;89.08;97252.16;5075596;28;20565;-70
2021/12/24 10:04:43;;;;;;;2.47;2.27;;;;;;;8.56;89.93;97253.84;5075686;28;20572;-68
2021/12/24 10:07:12;;;;;;;2.83;2.50;;;;;;;8.48;90.82;97254.16;5076122;28;20192;-68
2021/12/24 10:09:44;;;;;;;3.03;2.43;;;;;;;8.60;89.46;97255.81;5075700;28;20212;-68
2021/12/24 10:12:17;;;;;;;3.87;2.47;;;;;;;8.62;89.48;97252.94;5075625;28;20208;-68
2021/12/24 10:15:03;;;;;;;3.67;2.47;;;;;;;8.64;89.52;97251.66;5075728;28;20584;-72
2021/12/24 10:17:32;;;;;;;2.67;2.17;;;;;;;8.65;89.42;97255.94;5075804;28;20212;-73
2021/12/24 10:20:02;;;;;;;2.70;2.50;;;;;;;8.65;89.62;97249.84;5076609;28;20208;-71
2021/12/24 10:22:28;;;;;;;3.63;2.53;;;;;;;8.63;89.64;97244.75;5078432;28;20193;-71
2021/12/24 10:25:01;;;;;;;2.70;2.30;;;;;;;8.60;89.71;97247.06;5079950;28;20643;-71
2021/12/24 10:27:32;;;;;;;2.80;2.50;;;;;;;8.63;89.44;97242.13;5080126;28;20272;-71
2021/12/24 10:30:00;;;;;;;3.73;2.20;;;;;;;8.66;89.56;97240.84;5079910;28;20592;-71
2021/12/24 10:32:26;;;;;;;4.57;2.53;;;;;;;8.65;89.40;97233.94;5080433;28;20201;-68
2021/12/24 10:34:53;;;;;;;2.90;2.60;;;;;;;8.68;89.32;97220.22;5080145;28;20220;-68
2021/12/24 10:37:22;;;;;;;2.33;2.10;;;;;;;8.62;89.59;97213.19;5079972;28;20228;-69
2021/12/24 10:39:52;;;;;;;2.50;2.30;;;;;;;8.67;89.69;97214.13;5080115;28;20250;-68
2021/12/24 10:42:51;;;;;;;2.50;2.30;;;;;;;8.57;91.39;97215.72;5080009;28;20196;-68
2021/12/24 10:45:20;;;;;;;2.87;2.40;;;;;;;8.58;90.91;97217.31;5078754;28;20220;-72
2021/12/24 10:47:47;;;;;;;3.07;2.77;;;;;;;8.56;91.07;97222.06;5079860;28;20239;-71
2021/12/24 10:50:29;;;;;;;2.80;2.30;;;;;;;8.56;90.93;97214.13;5079803;28;20202;-71
2021/12/24 10:53:15;;;;;;;3.47;2.60;;;;;;;8.58;90.81;97210.19;5080214;28;20192;-71
2021/12/24 10:55:46;;;;;;;3.80;2.50;;;;;;;8.59;90.64;97197.75;5079406;28;20741;-72
2021/12/24 10:58:18;;;;;;;2.67;2.40;;;;;;;8.56;90.84;97195.56;5079516;28;20219;-72
2021/12/24 11:00:55;;;;;;;4.13;2.50;;;;;;;8.63;90.10;97196.25;5079476;28;20200;-70
2021/12/24 11:03:24;;;;;;;2.30;2.10;;;;;;;8.61;90.73;97201.00;5079518;28;20203;-71
2021/12/24 11:06:12;;;;;;;2.13;2.00;;;;;;;8.73;89.12;97191.22;5079442;28;20231;-70
2021/12/24 11:08:39;;;;;;;4.40;2.03;;;;;;;8.70;89.66;97189.03;5079341;28;20207;-70
2021/12/24 11:11:08;;;;;;;2.50;2.27;;;;;;;8.72;89.33;97186.94;5079197;28;20219;-72
2021/12/24 11:13:39;;;;;;;2.80;2.10;;;;;;;8.66;89.54;97188.69;5078958;28;20204;-68
2021/12/24 11:16:07;;;;;;;2.03;1.83;;;;;;;8.69;89.20;97182.13;5079070;28;20311;-68
2021/12/24 11:18:40;;;;;;;5.23;2.50;;;;;;;8.68;89.36;97189.25;5079405;28;20200;-72
2021/12/24 11:21:18;;;;;;;3.00;2.00;;;;;;;8.77;88.77;97195.00;5078882;28;20607;-71
2021/12/24 11:23:44;;;;;;;4.37;1.70;;;;;;;8.74;88.92;97190.19;5079438;28;20200;-71
2021/12/24 11:26:14;;;;;;;2.10;1.70;;;;;;;8.75;88.67;97194.44;5079196;28;20221;-71
2021/12/24 11:28:42;;;;;;;2.90;1.93;;;;;;;8.74;88.99;97190.97;5078727;28;20189;-71
2021/12/24 11:31:12;;;;;;;1.83;1.63;;;;;;;8.77;88.38;97185.22;5079130;28;20185;-71
2021/12/24 11:33:42;;;;;;;2.17;1.90;;;;;;;8.77;88.81;97182.59;5078093;28;20197;-71
2021/12/24 11:36:10;;;;;;;1.67;1.53;;;;;;;8.82;88.75;97182.69;5078794;28;20224;-71
2021/12/24 11:38:52;;;;;;;2.10;1.50;;;;;;;8.80;88.55;97183.97;5078968;28;20196;-71
2021/12/24 11:41:22;;;;;;;2.73;1.43;;;;;;;8.81;88.75;97180.28;5078895;28;20267;-71
2021/12/24 11:43:51;;;;;;;1.37;1.20;;;;;;;8.88;88.18;97171.19;5078738;28;20189;-71
2021/12/24 11:46:20;;;;;;;1.60;1.50;;;;;;;8.84;88.48;97163.94;5078548;28;20220;-71
2021/12/24 11:48:49;;;;;;;1.30;1.20;;;;;;;8.86;88.41;97167.16;5078605;28;20208;-71
2021/12/24 11:51:21;;;;;;;1.53;1.37;;;;;;;8.92;87.80;97174.19;5078369;28;20600;-71
2021/12/24 11:53:51;;;;;;;1.80;1.50;;;;;;;8.94;88.05;97178.22;5078752;28;20212;-71
2021/12/24 11:56:19;;;;;;;1.80;1.47;;;;;;;8.98;87.71;97170.63;5077973;28;20648;-71
2021/12/24 11:58:52;;;;;;;2.63;1.17;;;;;;;8.96;88.48;97160.25;5078353;28;20258;-71
2021/12/24 12:01:25;;;;;;;3.07;1.33;;;;;;;9.09;88.05;97161.88;5078264;28;20189;-73
2021/12/24 12:03:57;;;;;;;1.23;1.10;;;;;;;9.00;90.22;97152.66;5078515;28;20295;-73
2021/12/24 12:06:23;;;;;;;1.57;1.47;;;;;;;9.05;89.70;97155.41;5078658;28;20228;-72
2021/12/24 12:08:55;;;;;;;1.20;1.10;;;;;;;9.09;88.97;97143.31;5075580;28;20203;-72
2021/12/24 12:11:32;;;;;;;1.87;1.20;;;;;;;9.11;90.03;97141.22;5058067;28;20209;-71
2021/12/24 12:14:05;;;;;;;1.17;1.10;;;;;;;9.21;89.08;97141.44;5058545;28;20190;-70
2021/12/24 12:16:40;;;;;;;1.40;1.20;;;;;;;9.27;88.31;97141.31;5058148;28;20225;-70
2021/12/24 12:19:15;;;;;;;1.93;1.23;;;;;;;9.33;88.47;97137.72;5058136;28;20204;-70
2021/12/24 12:22:11;;;;;;;1.47;1.10;;;;;;;9.44;86.93;97142.22;5058026;28;20212;-68
2021/12/24 12:27:44;;;;;;;1.43;1.10;;;;;;;9.44;86.72;97122.84;5058112;28;20616;-71
2021/12/24 12:30:25;;;;;;;1.27;1.00;;;;;;;9.48;86.87;97121.34;5058092;28;20221;-70
2021/12/24 12:33:03;;;;;;;1.07;0.90;;;;;;;9.48;86.91;97126.66;5057583;28;20606;-71
2021/12/24 12:35:38;;;;;;;1.80;1.10;;;;;;;9.51;86.36;97123.53;5057873;28;20229;-69
2021/12/24 12:38:22;;;;;;;1.57;0.87;;;;;;;9.49;85.87;97120.28;5057591;28;20212;-70
2021/12/24 12:40:49;;;;;;;0.80;0.80;;;;;;;9.42;86.20;97109.03;5057705;28;20189;-71
2021/12/24 12:43:15;;;;;;;1.20;1.10;;;;;;;9.44;85.66;97107.75;5057721;28;20205;-70
2021/12/24 12:45:42;;;;;;;1.60;0.83;;;;;;;9.42;86.36;97115.13;5057246;28;20652;-71
2021/12/24 12:48:11;;;;;;;1.10;1.00;;;;;;;9.42;86.89;97101.84;5057915;28;20189;-72
2021/12/24 12:50:40;;;;;;;1.07;1.03;;;;;;;9.47;85.80;97104.63;5057339;28;20205;-71
2021/12/24 12:53:31;;;;;;;1.10;1.00;;;;;;;9.55;85.74;97103.44;5057487;28;20380;-71
2021/12/24 12:56:14;;;;;;;1.17;0.90;;;;;;;9.55;85.46;97092.84;5057374;28;20225;-70
2021/12/24 12:58:46;;;;;;;0.77;0.77;;;;;;;9.52;85.46;97099.44;5057258;28;20524;-71
2021/12/24 13:01:21;;;;;;;0.80;0.80;;;;;;;9.53;85.48;97102.88;5057363;28;20190;-68
2021/12/24 13:03:57;;;;;;;0.70;0.70;;;;;;;9.53;85.65;97101.03;5057323;28;20295;-68
2021/12/24 13:06:36;;;;;;;0.87;0.87;;;;;;;9.52;85.73;97088.00;5056893;28;20224;-68